sensor_id;sensor_type;location;lat;lon;timestamp;P1;durP1;ratioP1;P2;durP2;ratioP2
17175;SDS011;8703;48.996;9.594;2023-03-05T00:00:26;33.70;;;14.27;;
17175;SDS011;8703;48.996;9.594;2023-03-05T00:02:53;36.40;;;15.23;;
17175;SDS011;8703;48.996;9.594;2023-03-05T00:05:21;35.60;;;15.20;;
17175;SDS011;8703;48.996;9.594;2023-03-05T00:07:48;29.13;;;14.50;;
17175;SDS011;8703;48.996;9.594;2023-03-05T00:10:16;33.87;;;15.80;;
17175;SDS011;8703;48.996;9.594;2023-03-05T00:12:43;34.87;;;14.63;;
17175;SDS011;8703;48.996;9.594;2023-03-05T00:15:11;36.23;;;15.50;;
17175;SDS011;8703;48.996;9.594;2023-03-05T00:17:39;30.90;;;14.90;;
17175;SDS011;8703;48.996;9.594;2023-03-05T00:20:07;35.20;;;15.17;;
17175;SDS011;8703;48.996;9.594;2023-03-05T00:22:35;38.33;;;15.87;;
17175;SDS011;8703;48.996;9.594;2023-03-05T00:25:03;36.43;;;16.80;;
17175;SDS011;8703;48.996;9.594;2023-03-05T00:27:31;36.47;;;16.23;;
17175;SDS011;8703;48.996;9.594;2023-03-05T00:29:58;35.13;;;15.80;;
17175;SDS011;8703;48.996;9.594;2023-03-05T00:32:26;33.10;;;15.00;;
17175;SDS011;8703;48.996;9.594;2023-03-05T00:34:54;32.60;;;15.13;;
17175;SDS011;8703;48.996;9.594;2023-03-05T00:37:22;36.27;;;15.57;;
17175;SDS011;8703;48.996;9.594;2023-03-05T00:39:49;35.47;;;14.77;;
17175;SDS011;8703;48.996;9.594;2023-03-05T00:42:16;37.60;;;16.60;;
17175;SDS011;8703;48.996;9.594;2023-03-05T00:44:43;36.57;;;15.23;;
17175;SDS011;8703;48.996;9.594;2023-03-05T00:47:11;37.53;;;16.17;;
17175;SDS011;8703;48.996;9.594;2023-03-05T00:49:40;31.97;;;15.77;;
17175;SDS011;8703;48.996;9.594;2023-03-05T00:52:09;42.40;;;16.70;;
17175;SDS011;8703;48.996;9.594;2023-03-05T00:54:36;37.10;;;16.40;;
17175;SDS011;8703;48.996;9.594;2023-03-05T00:57:04;39.17;;;17.47;;
17175;SDS011;8703;48.996;9.594;2023-03-05T00:59:31;42.57;;;18.47;;
17175;SDS011;8703;48.996;9.594;2023-03-05T01:01:58;39.93;;;16.90;;
17175;SDS011;8703;48.996;9.594;2023-03-05T01:04:26;40.80;;;17.27;;
17175;SDS011;8703;48.996;9.594;2023-03-05T01:06:53;37.57;;;16.57;;
17175;SDS011;8703;48.996;9.594;2023-03-05T01:09:22;39.60;;;16.27;;
17175;SDS011;8703;48.996;9.594;2023-03-05T01:11:49;35.30;;;16.10;;
17175;SDS011;8703;48.996;9.594;2023-03-05T01:14:17;36.93;;;15.63;;
17175;SDS011;8703;48.996;9.594;2023-03-05T01:16:44;36.33;;;16.03;;
17175;SDS011;8703;48.996;9.594;2023-03-05T01:19:12;39.17;;;16.30;;
17175;SDS011;8703;48.996;9.594;2023-03-05T01:21:40;38.03;;;15.90;;
17175;SDS011;8703;48.996;9.594;2023-03-05T01:24:08;36.57;;;16.00;;
17175;SDS011;8703;48.996;9.594;2023-03-05T01:26:37;39.67;;;16.53;;
17175;SDS011;8703;48.996;9.594;2023-03-05T01:29:04;40.90;;;16.70;;
17175;SDS011;8703;48.996;9.594;2023-03-05T01:31:31;39.57;;;17.17;;
17175;SDS011;8703;48.996;9.594;2023-03-05T01:33:59;39.80;;;17.13;;
17175;SDS011;8703;48.996;9.594;2023-03-05T01:36:26;40.13;;;17.03;;
17175;SDS011;8703;48.996;9.594;2023-03-05T01:38:54;40.43;;;17.07;;
17175;SDS011;8703;48.996;9.594;2023-03-05T01:41:21;42.97;;;17.07;;
17175;SDS011;8703;48.996;9.594;2023-03-05T01:43:50;41.87;;;16.60;;
17175;SDS011;8703;48.996;9.594;2023-03-05T01:46:21;39.37;;;16.90;;
17175;SDS011;8703;48.996;9.594;2023-03-05T01:48:53;39.13;;;15.90;;
17175;SDS011;8703;48.996;9.594;2023-03-05T01:51:23;36.77;;;16.97;;
17175;SDS011;8703;48.996;9.594;2023-03-05T01:53:52;41.23;;;16.27;;
17175;SDS011;8703;48.996;9.594;2023-03-05T01:56:22;32.83;;;15.23;;
17175;SDS011;8703;48.996;9.594;2023-03-05T01:58:51;40.03;;;16.10;;
17175;SDS011;8703;48.996;9.594;2023-03-05T02:01:21;37.63;;;16.10;;
17175;SDS011;8703;48.996;9.594;2023-03-05T02:03:49;35.20;;;15.17;;
17175;SDS011;8703;48.996;9.594;2023-03-05T02:06:16;34.67;;;15.80;;
17175;SDS011;8703;48.996;9.594;2023-03-05T02:08:44;35.07;;;15.47;;
17175;SDS011;8703;48.996;9.594;2023-03-05T02:11:11;39.43;;;16.50;;
17175;SDS011;8703;48.996;9.594;2023-03-05T02:13:38;38.43;;;16.00;;
17175;SDS011;8703;48.996;9.594;2023-03-05T02:16:07;37.37;;;15.47;;
17175;SDS011;8703;48.996;9.594;2023-03-05T02:18:34;39.83;;;16.27;;
17175;SDS011;8703;48.996;9.594;2023-03-05T02:21:04;37.60;;;16.00;;
17175;SDS011;8703;48.996;9.594;2023-03-05T02:23:32;35.83;;;15.27;;
17175;SDS011;8703;48.996;9.594;2023-03-05T02:26:01;44.67;;;16.57;;
17175;SDS011;8703;48.996;9.594;2023-03-05T02:28:31;36.93;;;15.37;;
17175;SDS011;8703;48.996;9.594;2023-03-05T02:31:01;39.53;;;15.97;;
17175;SDS011;8703;48.996;9.594;2023-03-05T02:33:34;36.63;;;15.17;;
17175;SDS011;8703;48.996;9.594;2023-03-05T02:36:04;32.63;;;15.80;;
17175;SDS011;8703;48.996;9.594;2023-03-05T02:38:32;36.80;;;15.83;;
17175;SDS011;8703;48.996;9.594;2023-03-05T02:40:59;38.13;;;16.57;;
17175;SDS011;8703;48.996;9.594;2023-03-05T02:43:27;40.63;;;16.17;;
17175;SDS011;8703;48.996;9.594;2023-03-05T02:45:54;35.57;;;15.93;;
17175;SDS011;8703;48.996;9.594;2023-03-05T02:48:21;39.57;;;15.60;;
17175;SDS011;8703;48.996;9.594;2023-03-05T02:50:49;40.23;;;15.87;;
17175;SDS011;8703;48.996;9.594;2023-03-05T02:53:17;32.87;;;14.87;;
17175;SDS011;8703;48.996;9.594;2023-03-05T02:55:46;37.33;;;15.87;;
17175;SDS011;8703;48.996;9.594;2023-03-05T02:58:14;38.97;;;16.03;;
17175;SDS011;8703;48.996;9.594;2023-03-05T03:00:42;36.10;;;15.27;;
17175;SDS011;8703;48.996;9.594;2023-03-05T03:03:10;33.77;;;14.97;;
17175;SDS011;8703;48.996;9.594;2023-03-05T03:05:38;36.73;;;15.77;;
17175;SDS011;8703;48.996;9.594;2023-03-05T03:08:05;33.60;;;15.77;;
17175;SDS011;8703;48.996;9.594;2023-03-05T03:10:34;34.77;;;15.23;;
17175;SDS011;8703;48.996;9.594;2023-03-05T03:13:01;34.47;;;15.47;;
17175;SDS011;8703;48.996;9.594;2023-03-05T03:15:29;36.77;;;15.67;;
17175;SDS011;8703;48.996;9.594;2023-03-05T03:17:56;34.57;;;14.87;;
17175;SDS011;8703;48.996;9.594;2023-03-05T03:20:23;41.83;;;16.13;;
17175;SDS011;8703;48.996;9.594;2023-03-05T03:22:51;36.70;;;14.77;;
17175;SDS011;8703;48.996;9.594;2023-03-05T03:25:19;39.80;;;16.00;;
17175;SDS011;8703;48.996;9.594;2023-03-05T03:27:48;39.87;;;15.53;;
17175;SDS011;8703;48.996;9.594;2023-03-05T03:30:16;36.07;;;15.17;;
17175;SDS011;8703;48.996;9.594;2023-03-05T03:32:43;40.40;;;15.27;;
17175;SDS011;8703;48.996;9.594;2023-03-05T03:35:11;34.07;;;15.30;;
17175;SDS011;8703;48.996;9.594;2023-03-05T03:37:38;35.10;;;15.87;;
17175;SDS011;8703;48.996;9.594;2023-03-05T03:40:06;36.60;;;15.77;;
17175;SDS011;8703;48.996;9.594;2023-03-05T03:42:34;38.17;;;16.00;;
17175;SDS011;8703;48.996;9.594;2023-03-05T03:45:04;36.17;;;15.53;;
17175;SDS011;8703;48.996;9.594;2023-03-05T03:47:32;35.87;;;14.97;;
17175;SDS011;8703;48.996;9.594;2023-03-05T03:49:59;45.00;;;17.00;;
17175;SDS011;8703;48.996;9.594;2023-03-05T03:52:27;36.77;;;15.23;;
17175;SDS011;8703;48.996;9.594;2023-03-05T03:54:54;41.07;;;17.67;;
17175;SDS011;8703;48.996;9.594;2023-03-05T03:57:25;41.97;;;16.57;;
17175;SDS011;8703;48.996;9.594;2023-03-05T03:59:53;41.93;;;16.20;;
17175;SDS011;8703;48.996;9.594;2023-03-05T04:02:22;44.07;;;19.30;;
17175;SDS011;8703;48.996;9.594;2023-03-05T04:04:49;50.93;;;20.70;;
17175;SDS011;8703;48.996;9.594;2023-03-05T04:07:17;43.93;;;17.77;;
17175;SDS011;8703;48.996;9.594;2023-03-05T04:09:44;39.23;;;15.90;;
17175;SDS011;8703;48.996;9.594;2023-03-05T04:12:12;41.47;;;16.57;;
17175;SDS011;8703;48.996;9.594;2023-03-05T04:14:42;40.27;;;16.17;;
17175;SDS011;8703;48.996;9.594;2023-03-05T04:17:10;38.70;;;15.73;;
17175;SDS011;8703;48.996;9.594;2023-03-05T04:19:39;36.77;;;15.03;;
17175;SDS011;8703;48.996;9.594;2023-03-05T04:22:07;37.40;;;15.00;;
17175;SDS011;8703;48.996;9.594;2023-03-05T04:24:36;40.17;;;16.10;;
17175;SDS011;8703;48.996;9.594;2023-03-05T04:27:04;34.57;;;15.10;;
17175;SDS011;8703;48.996;9.594;2023-03-05T04:29:31;39.63;;;16.03;;
17175;SDS011;8703;48.996;9.594;2023-03-05T04:31:59;38.33;;;15.77;;
17175;SDS011;8703;48.996;9.594;2023-03-05T04:34:26;49.93;;;18.50;;
17175;SDS011;8703;48.996;9.594;2023-03-05T04:36:55;47.30;;;17.93;;
17175;SDS011;8703;48.996;9.594;2023-03-05T04:39:22;43.53;;;17.80;;
17175;SDS011;8703;48.996;9.594;2023-03-05T04:41:50;62.90;;;25.60;;
17175;SDS011;8703;48.996;9.594;2023-03-05T04:44:17;58.67;;;24.17;;
17175;SDS011;8703;48.996;9.594;2023-03-05T04:46:47;44.77;;;18.40;;
17175;SDS011;8703;48.996;9.594;2023-03-05T04:49:14;38.97;;;16.40;;
17175;SDS011;8703;48.996;9.594;2023-03-05T04:51:41;36.17;;;15.70;;
17175;SDS011;8703;48.996;9.594;2023-03-05T04:54:10;46.73;;;20.77;;
17175;SDS011;8703;48.996;9.594;2023-03-05T04:56:37;36.67;;;17.60;;
17175;SDS011;8703;48.996;9.594;2023-03-05T04:59:05;40.60;;;17.43;;
17175;SDS011;8703;48.996;9.594;2023-03-05T05:01:32;38.07;;;16.50;;
17175;SDS011;8703;48.996;9.594;2023-03-05T05:03:59;33.80;;;14.97;;
17175;SDS011;8703;48.996;9.594;2023-03-05T05:06:27;38.07;;;16.03;;
17175;SDS011;8703;48.996;9.594;2023-03-05T05:08:54;46.77;;;16.93;;
17175;SDS011;8703;48.996;9.594;2023-03-05T05:11:23;38.80;;;16.37;;
17175;SDS011;8703;48.996;9.594;2023-03-05T05:13:50;38.90;;;15.60;;
17175;SDS011;8703;48.996;9.594;2023-03-05T05:16:17;42.17;;;17.73;;
17175;SDS011;8703;48.996;9.594;2023-03-05T05:18:45;41.13;;;17.50;;
17175;SDS011;8703;48.996;9.594;2023-03-05T05:21:12;43.37;;;15.93;;
17175;SDS011;8703;48.996;9.594;2023-03-05T05:23:42;40.73;;;16.13;;
17175;SDS011;8703;48.996;9.594;2023-03-05T05:26:10;41.20;;;17.50;;
17175;SDS011;8703;48.996;9.594;2023-03-05T05:28:39;64.43;;;25.73;;
17175;SDS011;8703;48.996;9.594;2023-03-05T05:31:08;50.43;;;21.90;;
17175;SDS011;8703;48.996;9.594;2023-03-05T05:33:36;47.03;;;20.77;;
17175;SDS011;8703;48.996;9.594;2023-03-05T05:36:05;45.67;;;18.47;;
17175;SDS011;8703;48.996;9.594;2023-03-05T05:38:33;43.27;;;17.00;;
17175;SDS011;8703;48.996;9.594;2023-03-05T05:41:02;38.30;;;15.77;;
17175;SDS011;8703;48.996;9.594;2023-03-05T05:43:30;39.77;;;16.20;;
17175;SDS011;8703;48.996;9.594;2023-03-05T05:46:00;37.17;;;15.60;;
17175;SDS011;8703;48.996;9.594;2023-03-05T05:48:28;38.37;;;16.17;;
17175;SDS011;8703;48.996;9.594;2023-03-05T05:50:56;38.50;;;16.30;;
17175;SDS011;8703;48.996;9.594;2023-03-05T05:53:25;36.20;;;15.00;;
17175;SDS011;8703;48.996;9.594;2023-03-05T05:55:52;36.97;;;15.50;;
17175;SDS011;8703;48.996;9.594;2023-03-05T05:58:20;39.40;;;15.50;;
17175;SDS011;8703;48.996;9.594;2023-03-05T06:00:47;36.80;;;15.83;;
17175;SDS011;8703;48.996;9.594;2023-03-05T06:03:16;41.93;;;16.40;;
17175;SDS011;8703;48.996;9.594;2023-03-05T06:05:43;38.07;;;15.23;;
17175;SDS011;8703;48.996;9.594;2023-03-05T06:08:11;37.00;;;15.90;;
17175;SDS011;8703;48.996;9.594;2023-03-05T06:10:39;37.83;;;15.23;;
17175;SDS011;8703;48.996;9.594;2023-03-05T06:13:06;36.60;;;15.77;;
17175;SDS011;8703;48.996;9.594;2023-03-05T06:15:33;36.50;;;14.33;;
17175;SDS011;8703;48.996;9.594;2023-03-05T06:18:01;34.47;;;14.70;;
17175;SDS011;8703;48.996;9.594;2023-03-05T06:20:30;36.97;;;14.93;;
17175;SDS011;8703;48.996;9.594;2023-03-05T06:22:57;40.47;;;14.27;;
17175;SDS011;8703;48.996;9.594;2023-03-05T06:25:24;38.40;;;15.27;;
17175;SDS011;8703;48.996;9.594;2023-03-05T06:27:52;32.80;;;14.00;;
17175;SDS011;8703;48.996;9.594;2023-03-05T06:30:19;34.60;;;14.73;;
17175;SDS011;8703;48.996;9.594;2023-03-05T06:32:47;41.57;;;15.00;;
17175;SDS011;8703;48.996;9.594;2023-03-05T06:35:14;40.10;;;15.80;;
17175;SDS011;8703;48.996;9.594;2023-03-05T06:37:43;34.23;;;14.53;;
17175;SDS011;8703;48.996;9.594;2023-03-05T06:40:11;35.37;;;15.37;;
17175;SDS011;8703;48.996;9.594;2023-03-05T06:42:39;38.83;;;14.70;;
17175;SDS011;8703;48.996;9.594;2023-03-05T06:45:06;38.80;;;13.93;;
17175;SDS011;8703;48.996;9.594;2023-03-05T06:47:35;33.17;;;13.90;;
17175;SDS011;8703;48.996;9.594;2023-03-05T06:50:02;33.47;;;14.00;;
17175;SDS011;8703;48.996;9.594;2023-03-05T06:52:30;35.47;;;14.57;;
17175;SDS011;8703;48.996;9.594;2023-03-05T06:54:59;35.00;;;14.30;;
17175;SDS011;8703;48.996;9.594;2023-03-05T06:57:26;34.67;;;14.77;;
17175;SDS011;8703;48.996;9.594;2023-03-05T06:59:54;33.53;;;14.37;;
17175;SDS011;8703;48.996;9.594;2023-03-05T07:02:21;37.90;;;14.97;;
17175;SDS011;8703;48.996;9.594;2023-03-05T07:04:48;36.97;;;15.83;;
17175;SDS011;8703;48.996;9.594;2023-03-05T07:07:16;37.50;;;16.07;;
17175;SDS011;8703;48.996;9.594;2023-03-05T07:09:43;41.33;;;16.37;;
17175;SDS011;8703;48.996;9.594;2023-03-05T07:12:15;42.33;;;17.63;;
17175;SDS011;8703;48.996;9.594;2023-03-05T07:14:42;34.30;;;14.50;;
17175;SDS011;8703;48.996;9.594;2023-03-05T07:17:10;39.60;;;14.97;;
17175;SDS011;8703;48.996;9.594;2023-03-05T07:19:39;42.50;;;15.40;;
17175;SDS011;8703;48.996;9.594;2023-03-05T07:22:07;38.87;;;14.87;;
17175;SDS011;8703;48.996;9.594;2023-03-05T07:24:35;42.43;;;14.73;;
17175;SDS011;8703;48.996;9.594;2023-03-05T07:27:02;35.27;;;14.10;;
17175;SDS011;8703;48.996;9.594;2023-03-05T07:29:31;38.07;;;17.20;;
17175;SDS011;8703;48.996;9.594;2023-03-05T07:31:59;41.97;;;17.10;;
17175;SDS011;8703;48.996;9.594;2023-03-05T07:34:26;38.73;;;16.10;;
17175;SDS011;8703;48.996;9.594;2023-03-05T07:36:53;35.57;;;15.80;;
17175;SDS011;8703;48.996;9.594;2023-03-05T07:39:21;41.83;;;16.40;;
17175;SDS011;8703;48.996;9.594;2023-03-05T07:41:48;42.27;;;18.23;;
17175;SDS011;8703;48.996;9.594;2023-03-05T07:44:16;43.47;;;17.77;;
17175;SDS011;8703;48.996;9.594;2023-03-05T07:46:45;38.40;;;16.80;;
17175;SDS011;8703;48.996;9.594;2023-03-05T07:49:12;37.73;;;14.87;;
17175;SDS011;8703;48.996;9.594;2023-03-05T07:51:40;32.97;;;14.13;;
17175;SDS011;8703;48.996;9.594;2023-03-05T07:54:08;39.23;;;15.50;;
17175;SDS011;8703;48.996;9.594;2023-03-05T07:56:36;35.37;;;14.77;;
17175;SDS011;8703;48.996;9.594;2023-03-05T07:59:04;35.77;;;14.83;;
17175;SDS011;8703;48.996;9.594;2023-03-05T08:01:32;39.63;;;15.13;;
17175;SDS011;8703;48.996;9.594;2023-03-05T08:04:02;42.43;;;17.97;;
17175;SDS011;8703;48.996;9.594;2023-03-05T08:06:30;41.13;;;17.47;;
17175;SDS011;8703;48.996;9.594;2023-03-05T08:08:57;42.20;;;16.37;;
17175;SDS011;8703;48.996;9.594;2023-03-05T08:11:25;35.70;;;15.20;;
17175;SDS011;8703;48.996;9.594;2023-03-05T08:13:53;39.57;;;15.97;;
17175;SDS011;8703;48.996;9.594;2023-03-05T08:16:23;36.67;;;15.60;;
17175;SDS011;8703;48.996;9.594;2023-03-05T08:18:52;39.13;;;16.00;;
17175;SDS011;8703;48.996;9.594;2023-03-05T08:21:23;39.97;;;16.30;;
17175;SDS011;8703;48.996;9.594;2023-03-05T08:23:53;42.17;;;16.37;;
17175;SDS011;8703;48.996;9.594;2023-03-05T08:26:21;43.37;;;18.63;;
17175;SDS011;8703;48.996;9.594;2023-03-05T08:28:50;48.30;;;18.87;;
17175;SDS011;8703;48.996;9.594;2023-03-05T08:31:18;44.83;;;18.87;;
17175;SDS011;8703;48.996;9.594;2023-03-05T08:33:46;53.90;;;20.97;;
17175;SDS011;8703;48.996;9.594;2023-03-05T08:36:14;44.50;;;19.17;;
17175;SDS011;8703;48.996;9.594;2023-03-05T08:38:43;45.43;;;17.60;;
17175;SDS011;8703;48.996;9.594;2023-03-05T08:41:12;44.07;;;19.43;;
17175;SDS011;8703;48.996;9.594;2023-03-05T08:43:41;53.63;;;22.93;;
17175;SDS011;8703;48.996;9.594;2023-03-05T08:46:08;52.87;;;24.93;;
17175;SDS011;8703;48.996;9.594;2023-03-05T08:48:36;49.10;;;19.13;;
17175;SDS011;8703;48.996;9.594;2023-03-05T08:51:04;48.07;;;18.90;;
17175;SDS011;8703;48.996;9.594;2023-03-05T08:53:32;47.80;;;19.57;;
17175;SDS011;8703;48.996;9.594;2023-03-05T08:56:01;41.90;;;17.03;;
17175;SDS011;8703;48.996;9.594;2023-03-05T08:58:28;39.03;;;16.03;;
17175;SDS011;8703;48.996;9.594;2023-03-05T09:00:56;40.60;;;17.57;;
17175;SDS011;8703;48.996;9.594;2023-03-05T09:03:24;41.33;;;17.60;;
17175;SDS011;8703;48.996;9.594;2023-03-05T09:05:51;41.73;;;18.30;;
17175;SDS011;8703;48.996;9.594;2023-03-05T09:08:19;42.63;;;17.53;;
17175;SDS011;8703;48.996;9.594;2023-03-05T09:10:46;44.10;;;17.87;;
17175;SDS011;8703;48.996;9.594;2023-03-05T09:13:15;39.33;;;17.23;;
17175;SDS011;8703;48.996;9.594;2023-03-05T09:15:42;41.17;;;17.67;;
17175;SDS011;8703;48.996;9.594;2023-03-05T09:18:09;42.40;;;18.33;;
17175;SDS011;8703;48.996;9.594;2023-03-05T09:20:37;38.53;;;18.40;;
17175;SDS011;8703;48.996;9.594;2023-03-05T09:23:04;39.57;;;18.70;;
17175;SDS011;8703;48.996;9.594;2023-03-05T09:25:31;44.40;;;18.07;;
17175;SDS011;8703;48.996;9.594;2023-03-05T09:27:59;44.17;;;18.07;;
17175;SDS011;8703;48.996;9.594;2023-03-05T09:30:27;43.27;;;16.67;;
17175;SDS011;8703;48.996;9.594;2023-03-05T09:32:55;42.20;;;18.47;;
17175;SDS011;8703;48.996;9.594;2023-03-05T09:35:22;39.40;;;18.93;;
17175;SDS011;8703;48.996;9.594;2023-03-05T09:37:49;45.47;;;18.53;;
17175;SDS011;8703;48.996;9.594;2023-03-05T09:40:18;45.63;;;18.27;;
17175;SDS011;8703;48.996;9.594;2023-03-05T09:42:53;38.83;;;16.93;;
17175;SDS011;8703;48.996;9.594;2023-03-05T09:45:29;40.50;;;18.20;;
17175;SDS011;8703;48.996;9.594;2023-03-05T09:48:03;35.03;;;16.53;;
17175;SDS011;8703;48.996;9.594;2023-03-05T09:50:37;38.33;;;18.03;;
17175;SDS011;8703;48.996;9.594;2023-03-05T09:53:16;32.23;;;14.90;;
17175;SDS011;8703;48.996;9.594;2023-03-05T09:55:47;33.23;;;15.53;;
17175;SDS011;8703;48.996;9.594;2023-03-05T09:58:18;33.93;;;15.67;;
17175;SDS011;8703;48.996;9.594;2023-03-05T10:00:53;31.27;;;14.33;;
17175;SDS011;8703;48.996;9.594;2023-03-05T10:03:24;41.37;;;15.67;;
17175;SDS011;8703;48.996;9.594;2023-03-05T10:06:04;37.57;;;14.97;;
17175;SDS011;8703;48.996;9.594;2023-03-05T10:08:42;34.60;;;14.93;;
17175;SDS011;8703;48.996;9.594;2023-03-05T10:11:17;31.37;;;15.07;;
17175;SDS011;8703;48.996;9.594;2023-03-05T10:13:54;34.57;;;15.33;;
17175;SDS011;8703;48.996;9.594;2023-03-05T10:16:48;29.67;;;14.07;;
17175;SDS011;8703;48.996;9.594;2023-03-05T10:19:37;35.97;;;15.63;;
17175;SDS011;8703;48.996;9.594;2023-03-05T10:22:18;39.80;;;15.93;;
17175;SDS011;8703;48.996;9.594;2023-03-05T10:24:53;42.03;;;17.53;;
17175;SDS011;8703;48.996;9.594;2023-03-05T10:27:31;35.73;;;16.70;;
17175;SDS011;8703;48.996;9.594;2023-03-05T10:30:06;38.10;;;17.20;;
17175;SDS011;8703;48.996;9.594;2023-03-05T10:32:47;37.00;;;16.63;;
17175;SDS011;8703;48.996;9.594;2023-03-05T10:35:22;37.03;;;16.20;;
17175;SDS011;8703;48.996;9.594;2023-03-05T10:38:04;31.83;;;13.73;;
17175;SDS011;8703;48.996;9.594;2023-03-05T10:40:43;28.10;;;12.60;;
17175;SDS011;8703;48.996;9.594;2023-03-05T10:43:15;28.07;;;12.70;;
17175;SDS011;8703;48.996;9.594;2023-03-05T10:45:47;28.87;;;12.27;;
17175;SDS011;8703;48.996;9.594;2023-03-05T10:48:20;31.67;;;12.67;;
17175;SDS011;8703;48.996;9.594;2023-03-05T10:50:54;27.40;;;12.27;;
17175;SDS011;8703;48.996;9.594;2023-03-05T10:53:26;34.77;;;14.33;;
17175;SDS011;8703;48.996;9.594;2023-03-05T10:55:55;30.43;;;13.97;;
17175;SDS011;8703;48.996;9.594;2023-03-05T10:58:27;30.23;;;13.37;;
17175;SDS011;8703;48.996;9.594;2023-03-05T11:00:56;34.90;;;14.37;;
17175;SDS011;8703;48.996;9.594;2023-03-05T11:03:26;30.53;;;12.70;;
17175;SDS011;8703;48.996;9.594;2023-03-05T11:06:12;32.87;;;13.23;;
17175;SDS011;8703;48.996;9.594;2023-03-05T11:08:40;28.53;;;12.73;;
17175;SDS011;8703;48.996;9.594;2023-03-05T11:11:12;31.50;;;12.80;;
17175;SDS011;8703;48.996;9.594;2023-03-05T11:13:53;31.63;;;13.10;;
17175;SDS011;8703;48.996;9.594;2023-03-05T11:16:22;34.00;;;13.77;;
17175;SDS011;8703;48.996;9.594;2023-03-05T11:22:11;32.43;;;13.77;;
17175;SDS011;8703;48.996;9.594;2023-03-05T11:24:41;31.53;;;13.23;;
17175;SDS011;8703;48.996;9.594;2023-03-05T11:27:24;30.73;;;13.70;;
17175;SDS011;8703;48.996;9.594;2023-03-05T11:29:58;32.00;;;13.27;;
17175;SDS011;8703;48.996;9.594;2023-03-05T11:32:26;30.80;;;14.07;;
17175;SDS011;8703;48.996;9.594;2023-03-05T11:34:54;35.87;;;15.33;;
17175;SDS011;8703;48.996;9.594;2023-03-05T11:37:24;32.37;;;13.50;;
17175;SDS011;8703;48.996;9.594;2023-03-05T11:42:49;30.30;;;13.77;;
17175;SDS011;8703;48.996;9.594;2023-03-05T11:45:20;33.27;;;14.00;;
17175;SDS011;8703;48.996;9.594;2023-03-05T11:47:49;31.80;;;13.77;;
17175;SDS011;8703;48.996;9.594;2023-03-05T11:50:19;32.73;;;13.93;;
17175;SDS011;8703;48.996;9.594;2023-03-05T11:52:49;30.67;;;13.93;;
17175;SDS011;8703;48.996;9.594;2023-03-05T11:55:18;32.37;;;15.20;;
17175;SDS011;8703;48.996;9.594;2023-03-05T11:57:49;30.43;;;14.53;;
17175;SDS011;8703;48.996;9.594;2023-03-05T12:00:23;35.87;;;14.63;;
17175;SDS011;8703;48.996;9.594;2023-03-05T12:02:54;32.37;;;14.63;;
17175;SDS011;8703;48.996;9.594;2023-03-05T12:05:23;28.47;;;12.80;;
17175;SDS011;8703;48.996;9.594;2023-03-05T12:07:53;28.80;;;13.37;;
17175;SDS011;8703;48.996;9.594;2023-03-05T12:10:24;26.07;;;12.93;;
17175;SDS011;8703;48.996;9.594;2023-03-05T12:12:54;28.90;;;13.67;;
17175;SDS011;8703;48.996;9.594;2023-03-05T12:15:27;27.83;;;12.90;;
17175;SDS011;8703;48.996;9.594;2023-03-05T12:18:01;31.93;;;13.80;;
17175;SDS011;8703;48.996;9.594;2023-03-05T12:20:33;28.83;;;13.30;;
17175;SDS011;8703;48.996;9.594;2023-03-05T12:23:04;28.57;;;13.73;;
17175;SDS011;8703;48.996;9.594;2023-03-05T12:25:43;27.63;;;12.67;;
17175;SDS011;8703;48.996;9.594;2023-03-05T12:28:12;26.73;;;12.93;;
17175;SDS011;8703;48.996;9.594;2023-03-05T12:30:54;30.30;;;14.37;;
17175;SDS011;8703;48.996;9.594;2023-03-05T12:33:29;27.50;;;13.20;;
17175;SDS011;8703;48.996;9.594;2023-03-05T12:39:01;28.17;;;13.93;;
17175;SDS011;8703;48.996;9.594;2023-03-05T12:45:27;29.80;;;12.77;;
17175;SDS011;8703;48.996;9.594;2023-03-05T12:51:09;28.53;;;12.83;;
17175;SDS011;8703;48.996;9.594;2023-03-05T12:53:38;28.93;;;13.23;;
17175;SDS011;8703;48.996;9.594;2023-03-05T12:56:09;23.17;;;11.67;;
17175;SDS011;8703;48.996;9.594;2023-03-05T12:58:44;26.30;;;13.10;;
17175;SDS011;8703;48.996;9.594;2023-03-05T13:01:15;28.47;;;13.80;;
17175;SDS011;8703;48.996;9.594;2023-03-05T13:03:49;34.23;;;15.60;;
17175;SDS011;8703;48.996;9.594;2023-03-05T13:06:24;31.83;;;15.03;;
17175;SDS011;8703;48.996;9.594;2023-03-05T13:08:56;33.67;;;15.17;;
17175;SDS011;8703;48.996;9.594;2023-03-05T13:11:24;33.77;;;14.87;;
17175;SDS011;8703;48.996;9.594;2023-03-05T13:13:54;31.77;;;15.20;;
17175;SDS011;8703;48.996;9.594;2023-03-05T13:16:23;33.07;;;13.90;;
17175;SDS011;8703;48.996;9.594;2023-03-05T13:18:53;33.40;;;15.73;;
17175;SDS011;8703;48.996;9.594;2023-03-05T13:21:23;32.00;;;14.40;;
17175;SDS011;8703;48.996;9.594;2023-03-05T13:23:53;35.17;;;15.10;;
17175;SDS011;8703;48.996;9.594;2023-03-05T13:26:25;34.27;;;15.97;;
17175;SDS011;8703;48.996;9.594;2023-03-05T13:29:05;28.53;;;14.07;;
17175;SDS011;8703;48.996;9.594;2023-03-05T13:31:35;28.67;;;13.10;;
17175;SDS011;8703;48.996;9.594;2023-03-05T13:34:09;39.97;;;16.70;;
17175;SDS011;8703;48.996;9.594;2023-03-05T13:36:43;33.90;;;14.47;;
17175;SDS011;8703;48.996;9.594;2023-03-05T13:39:16;24.87;;;11.10;;
17175;SDS011;8703;48.996;9.594;2023-03-05T13:41:54;28.97;;;13.27;;
17175;SDS011;8703;48.996;9.594;2023-03-05T13:44:27;23.47;;;11.33;;
17175;SDS011;8703;48.996;9.594;2023-03-05T13:47:05;23.37;;;10.43;;
17175;SDS011;8703;48.996;9.594;2023-03-05T13:49:34;24.13;;;11.27;;
17175;SDS011;8703;48.996;9.594;2023-03-05T13:52:01;23.43;;;10.73;;
17175;SDS011;8703;48.996;9.594;2023-03-05T13:54:30;20.60;;;11.03;;
17175;SDS011;8703;48.996;9.594;2023-03-05T13:56:58;22.57;;;11.73;;
17175;SDS011;8703;48.996;9.594;2023-03-05T13:59:30;21.37;;;10.20;;
17175;SDS011;8703;48.996;9.594;2023-03-05T14:01:58;22.07;;;10.03;;
17175;SDS011;8703;48.996;9.594;2023-03-05T14:04:26;19.47;;;10.20;;
17175;SDS011;8703;48.996;9.594;2023-03-05T14:06:56;21.40;;;10.23;;
17175;SDS011;8703;48.996;9.594;2023-03-05T14:09:25;20.00;;;10.43;;
17175;SDS011;8703;48.996;9.594;2023-03-05T14:11:54;19.63;;;9.33;;
17175;SDS011;8703;48.996;9.594;2023-03-05T14:14:23;17.97;;;9.67;;
17175;SDS011;8703;48.996;9.594;2023-03-05T14:16:53;25.20;;;11.03;;
17175;SDS011;8703;48.996;9.594;2023-03-05T14:19:31;21.70;;;10.57;;
17175;SDS011;8703;48.996;9.594;2023-03-05T14:21:59;22.17;;;10.17;;
17175;SDS011;8703;48.996;9.594;2023-03-05T14:24:27;19.90;;;10.37;;
17175;SDS011;8703;48.996;9.594;2023-03-05T14:26:56;23.27;;;10.93;;
17175;SDS011;8703;48.996;9.594;2023-03-05T14:29:25;21.43;;;10.87;;
17175;SDS011;8703;48.996;9.594;2023-03-05T14:31:55;19.47;;;10.00;;
17175;SDS011;8703;48.996;9.594;2023-03-05T14:34:25;19.67;;;10.30;;
17175;SDS011;8703;48.996;9.594;2023-03-05T14:36:56;21.13;;;10.00;;
17175;SDS011;8703;48.996;9.594;2023-03-05T14:39:31;18.60;;;9.47;;
17175;SDS011;8703;48.996;9.594;2023-03-05T14:44:57;21.43;;;9.83;;
17175;SDS011;8703;48.996;9.594;2023-03-05T14:47:27;21.03;;;11.00;;
17175;SDS011;8703;48.996;9.594;2023-03-05T14:49:55;21.47;;;10.33;;
17175;SDS011;8703;48.996;9.594;2023-03-05T14:52:22;22.47;;;10.40;;
17175;SDS011;8703;48.996;9.594;2023-03-05T14:54:50;17.80;;;8.83;;
17175;SDS011;8703;48.996;9.594;2023-03-05T14:57:20;20.63;;;8.93;;
17175;SDS011;8703;48.996;9.594;2023-03-05T14:59:49;20.57;;;8.53;;
17175;SDS011;8703;48.996;9.594;2023-03-05T15:02:16;18.77;;;9.47;;
17175;SDS011;8703;48.996;9.594;2023-03-05T15:04:46;17.07;;;8.73;;
17175;SDS011;8703;48.996;9.594;2023-03-05T15:07:15;17.77;;;9.27;;